Time;durP1;ratioP1;P1;durP2;ratioP2;P2;SDS_P1;SDS_P2;PMS_P1;PMS_P2;Temp;Humidity;BMP_temperature;BMP_pressure;BME280_temperature;BME280_humidity;BME280_pressure;Samples;Min_cycle;Max_cycle;Signal;HPM_P1;HPM_P2
2021/11/26 00:01:24;;;;;;;5.97;3.30;;;20.00;99.90;;;;;;4246225;27;20226;-78
2021/11/26 00:03:26;;;;;;;5.75;3.33;;;20.00;99.90;;;;;;4245419;27;20213;-77
2021/11/26 00:05:29;;;;;;;6.70;3.13;;;19.90;99.90;;;;;;4245897;27;20254;-78
2021/11/26 00:07:31;;;;;;;4.60;3.38;;;20.00;99.90;;;;;;4242673;27;20673;-77
2021/11/26 00:09:33;;;;;;;5.00;3.22;;;19.90;99.90;;;;;;4245119;27;20217;-78
2021/11/26 00:11:36;;;;;;;5.70;3.15;;;20.00;99.90;;;;;;4243750;27;20268;-78
2021/11/26 00:13:42;;;;;;;5.38;3.35;;;20.00;99.90;;;;;;4245955;27;20240;-77
2021/11/26 00:15:45;;;;;;;3.78;3.05;;;20.00;99.90;;;;;;4245009;27;20209;-78
2021/11/26 00:17:50;;;;;;;5.15;3.00;;;19.90;99.90;;;;;;4245826;27;20611;-77
2021/11/26 00:19:52;;;;;;;5.40;2.80;;;20.00;99.90;;;;;;4243581;27;20577;-77
2021/11/26 00:21:55;;;;;;;5.10;3.28;;;20.00;99.90;;;;;;4242833;27;20212;-77
2021/11/26 00:23:58;;;;;;;3.90;2.85;;;19.90;99.90;;;;;;4243365;27;20628;-78
2021/11/26 00:26:00;;;;;;;5.40;3.03;;;20.00;99.90;;;;;;4243867;27;20305;-78
2021/11/26 00:28:03;;;;;;;4.60;2.83;;;19.90;99.90;;;;;;4244051;27;20908;-78
2021/11/26 00:30:08;;;;;;;6.40;2.65;;;19.90;99.90;;;;;;4243949;27;20262;-77
2021/11/26 00:32:11;;;;;;;5.82;3.45;;;19.90;99.90;;;;;;4243873;27;20725;-77
2021/11/26 00:34:13;;;;;;;5.00;3.30;;;19.90;99.90;;;;;;4244432;27;20669;-77
2021/11/26 00:36:16;;;;;;;5.75;3.40;;;19.90;99.90;;;;;;4244863;27;20209;-78
2021/11/26 00:38:18;;;;;;;5.10;2.80;;;19.90;99.90;;;;;;4242236;27;20213;-77
2021/11/26 00:40:21;;;;;;;6.13;3.15;;;19.90;99.90;;;;;;4242780;27;20270;-77
2021/11/26 00:42:23;;;;;;;4.50;2.95;;;19.90;99.90;;;;;;4245185;27;20547;-77
2021/11/26 00:44:26;;;;;;;5.90;3.28;;;19.90;99.90;;;;;;4244866;27;20287;-78
2021/11/26 00:46:29;;;;;;;5.57;2.97;;;19.90;99.90;;;;;;4244434;27;20213;-77
2021/11/26 00:48:32;;;;;;;5.72;3.05;;;19.90;99.90;;;;;;4230947;28;20231;-77
2021/11/26 00:50:35;;;;;;;5.05;3.10;;;19.80;99.90;;;;;;4224293;28;20214;-77
2021/11/26 00:52:37;;;;;;;5.20;2.70;;;19.90;99.90;;;;;;4226431;28;20237;-77
2021/11/26 00:54:40;;;;;;;4.38;3.05;;;19.80;99.90;;;;;;4224852;28;20271;-77
2021/11/26 00:56:42;;;;;;;4.72;2.70;;;19.80;99.90;;;;;;4220520;28;20217;-78
2021/11/26 00:58:44;;;;;;;5.45;3.47;;;19.80;99.90;;;;;;4220933;28;21015;-77
2021/11/26 01:00:47;;;;;;;5.35;2.83;;;19.80;99.90;;;;;;4220465;28;20284;-77
2021/11/26 01:02:50;;;;;;;7.30;3.28;;;19.80;99.90;;;;;;4222191;28;20662;-77
2021/11/26 01:04:53;;;;;;;4.43;2.95;;;19.80;99.90;;;;;;4226022;28;20267;-77
2021/11/26 01:06:55;;;;;;;4.85;2.63;;;19.80;99.90;;;;;;4219583;28;20214;-77
2021/11/26 01:08:57;;;;;;;3.88;2.90;;;19.80;99.90;;;;;;4223519;28;20217;-77
2021/11/26 01:11:00;;;;;;;5.10;2.97;;;19.80;99.90;;;;;;4228328;28;20218;-77
2021/11/26 01:13:02;;;;;;;4.05;2.70;;;19.80;99.90;;;;;;4222386;28;20230;-77
2021/11/26 01:15:07;;;;;;;3.83;2.55;;;19.80;99.90;;;;;;4215409;28;20219;-77
2021/11/26 01:17:09;;;;;;;3.72;2.33;;;19.80;99.90;;;;;;4227603;28;20275;-77
2021/11/26 01:19:13;;;;;;;4.75;2.80;;;19.80;99.90;;;;;;4229691;28;20263;-78
2021/11/26 01:21:15;;;;;;;4.22;2.53;;;19.80;99.90;;;;;;4221870;28;20210;-77
2021/11/26 01:23:18;;;;;;;4.07;2.33;;;19.80;99.90;;;;;;4214521;28;20603;-78
2021/11/26 01:25:21;;;;;;;5.18;2.92;;;19.70;99.90;;;;;;4214572;28;20670;-77
2021/11/26 01:27:23;;;;;;;4.25;2.70;;;19.70;99.90;;;;;;4214585;28;20623;-78
2021/11/26 01:29:25;;;;;;;4.20;2.50;;;19.70;99.90;;;;;;4220913;28;20213;-78
2021/11/26 01:31:28;;;;;;;5.25;2.90;;;19.70;99.90;;;;;;4223305;28;20233;-77
2021/11/26 01:33:30;;;;;;;4.95;2.78;;;19.70;99.90;;;;;;4214643;28;20268;-78
2021/11/26 01:35:35;;;;;;;4.43;2.67;;;19.70;99.90;;;;;;4214581;28;20308;-77
2021/11/26 01:37:37;;;;;;;3.92;2.70;;;19.70;99.90;;;;;;4218375;28;20206;-77
2021/11/26 01:39:39;;;;;;;4.55;2.53;;;19.70;99.90;;;;;;4214210;28;20211;-78
2021/11/26 01:41:43;;;;;;;3.90;2.47;;;19.70;99.90;;;;;;4213228;28;20264;-77
2021/11/26 01:43:45;;;;;;;4.35;2.65;;;19.80;99.90;;;;;;4214009;28;20206;-77
2021/11/26 01:45:49;;;;;;;4.35;2.58;;;19.70;99.90;;;;;;4213685;28;20218;-77
2021/11/26 01:47:52;;;;;;;2.83;2.30;;;19.60;99.90;;;;;;4213963;28;20678;-77
2021/11/26 01:49:55;;;;;;;4.30;2.60;;;19.60;99.90;;;;;;4214161;28;20284;-78
2021/11/26 01:51:59;;;;;;;3.75;2.53;;;19.70;99.90;;;;;;4214494;28;20273;-77
2021/11/26 01:54:02;;;;;;;5.30;2.80;;;19.60;99.90;;;;;;4214037;28;20643;-77
2021/11/26 01:56:06;;;;;;;3.72;2.85;;;19.60;99.90;;;;;;4211587;28;20218;-78
2021/11/26 01:58:10;;;;;;;3.83;2.53;;;19.70;99.90;;;;;;4209432;28;20222;-78
2021/11/26 02:00:17;;;;;;;3.78;2.38;;;19.60;99.90;;;;;;4212943;28;20214;-77
2021/11/26 02:02:20;;;;;;;4.05;2.60;;;19.60;99.90;;;;;;4214221;28;20264;-78
2021/11/26 02:04:23;;;;;;;4.35;2.67;;;19.60;99.90;;;;;;4214179;28;20233;-77
2021/11/26 02:06:25;;;;;;;3.95;2.47;;;19.70;99.90;;;;;;4213600;28;20651;-78
2021/11/26 02:08:29;;;;;;;4.55;2.33;;;19.60;99.90;;;;;;4213747;28;20677;-77
2021/11/26 02:10:31;;;;;;;3.35;2.17;;;19.60;99.90;;;;;;4213878;28;20260;-78
2021/11/26 02:12:34;;;;;;;3.20;2.28;;;19.70;99.90;;;;;;4214108;28;20682;-77
2021/11/26 02:14:36;;;;;;;3.75;2.10;;;19.60;99.90;;;;;;4209642;28;20748;-77
2021/11/26 02:16:43;;;;;;;3.78;2.33;;;19.60;99.90;;;;;;4210151;28;20214;-77
2021/11/26 02:18:49;;;;;;;4.43;2.40;;;19.60;99.90;;;;;;4212620;28;20214;-78
2021/11/26 02:20:53;;;;;;;4.40;2.38;;;19.60;99.90;;;;;;4213730;28;20214;-78
2021/11/26 02:22:57;;;;;;;4.35;2.63;;;19.60;99.90;;;;;;4212493;28;20245;-77
2021/11/26 02:24:59;;;;;;;3.65;2.17;;;19.60;99.90;;;;;;4211946;28;20957;-77
2021/11/26 02:27:01;;;;;;;3.78;2.30;;;19.60;99.90;;;;;;4213934;28;20260;-78
2021/11/26 02:29:04;;;;;;;4.80;2.40;;;19.60;99.90;;;;;;4213637;28;20218;-78
2021/11/26 02:31:06;;;;;;;4.03;2.33;;;19.60;99.90;;;;;;4213804;28;20226;-77
2021/11/26 02:33:10;;;;;;;5.38;2.70;;;19.60;99.90;;;;;;4213473;28;20214;-77
2021/11/26 02:35:13;;;;;;;3.53;2.10;;;19.60;99.90;;;;;;4213823;28;20256;-77
2021/11/26 02:37:17;;;;;;;3.47;2.28;;;19.50;99.90;;;;;;4213561;28;20269;-77
2021/11/26 02:39:19;;;;;;;4.50;2.28;;;19.50;99.90;;;;;;4212423;28;20218;-77
2021/11/26 02:41:21;;;;;;;5.55;2.70;;;19.60;99.90;;;;;;4213372;28;20214;-77
2021/11/26 02:43:24;;;;;;;3.53;2.10;;;19.60;99.90;;;;;;4213471;28;20210;-77
2021/11/26 02:45:27;;;;;;;3.40;2.38;;;19.50;99.90;;;;;;4213755;28;20210;-78
2021/11/26 02:47:30;;;;;;;4.57;2.13;;;19.50;99.90;;;;;;4213444;28;20238;-77
2021/11/26 02:49:32;;;;;;;3.45;2.22;;;19.50;99.90;;;;;;4227027;28;20279;-78
2021/11/26 02:51:35;;;;;;;3.67;1.98;;;19.50;99.90;;;;;;4230567;28;20217;-77
2021/11/26 02:53:39;;;;;;;3.45;2.20;;;19.50;99.90;;;;;;4229223;28;20284;-77
2021/11/26 02:55:41;;;;;;;3.75;2.35;;;19.50;99.90;;;;;;4226200;28;20218;-77
2021/11/26 02:57:45;;;;;;;2.97;2.05;;;19.50;99.90;;;;;;4229723;28;20213;-77
2021/11/26 02:59:48;;;;;;;4.53;2.20;;;19.50;99.90;;;;;;4230188;28;20214;-78
2021/11/26 03:01:50;;;;;;;4.55;2.50;;;19.50;99.90;;;;;;4230297;28;20225;-77
2021/11/26 03:03:53;;;;;;;4.28;2.25;;;19.50;99.90;;;;;;4229980;28;20210;-78
2021/11/26 03:06:00;;;;;;;4.78;2.53;;;19.50;99.90;;;;;;4230350;28;20201;-78
2021/11/26 03:08:02;;;;;;;3.47;2.38;;;19.50;99.90;;;;;;4230279;28;20804;-77
2021/11/26 03:10:08;;;;;;;3.08;2.10;;;19.50;99.90;;;;;;4230034;28;20283;-78
2021/11/26 03:12:12;;;;;;;3.22;2.45;;;19.50;99.90;;;;;;4229723;28;20213;-77
2021/11/26 03:14:14;;;;;;;3.63;2.05;;;19.50;99.90;;;;;;4225008;28;20287;-77
2021/11/26 03:16:16;;;;;;;5.78;2.20;;;19.50;99.90;;;;;;4229586;27;20331;-77
2021/11/26 03:18:20;;;;;;;3.28;2.33;;;19.50;99.90;;;;;;4229999;28;20221;-77
2021/11/26 03:20:23;;;;;;;4.25;2.08;;;19.40;99.90;;;;;;4229715;28;20598;-78
2021/11/26 03:22:26;;;;;;;4.03;2.25;;;19.40;99.90;;;;;;4229564;28;20209;-78
2021/11/26 03:24:28;;;;;;;3.67;2.10;;;19.40;99.90;;;;;;4230069;28;20658;-77
2021/11/26 03:26:32;;;;;;;4.57;2.05;;;19.40;99.90;;;;;;4229662;28;20217;-77
2021/11/26 03:28:34;;;;;;;3.08;2.25;;;19.40;99.90;;;;;;4229630;28;20221;-77
2021/11/26 03:30:37;;;;;;;4.35;2.80;;;19.40;99.90;;;;;;4227196;28;20267;-77
2021/11/26 03:32:39;;;;;;;4.25;2.20;;;19.40;99.90;;;;;;4228796;28;20281;-77
2021/11/26 03:34:42;;;;;;;3.15;2.00;;;19.40;99.90;;;;;;4229199;28;20237;-78
2021/11/26 03:36:44;;;;;;;2.67;2.00;;;19.40;99.90;;;;;;4229705;28;20232;-77
2021/11/26 03:38:46;;;;;;;4.25;2.33;;;19.40;99.90;;;;;;4229746;28;20267;-77
2021/11/26 03:40:48;;;;;;;3.85;2.00;;;19.40;99.90;;;;;;4229297;28;20264;-77
2021/11/26 03:42:53;;;;;;;3.88;2.08;;;19.40;99.90;;;;;;4228963;28;20727;-77
2021/11/26 03:44:55;;;;;;;2.97;1.88;;;19.40;99.90;;;;;;4226035;28;20205;-77
2021/11/26 03:46:58;;;;;;;3.90;2.05;;;19.40;99.90;;;;;;4228022;28;20266;-78
2021/11/26 03:49:00;;;;;;;4.38;2.47;;;19.40;99.90;;;;;;4228959;28;20245;-80
2021/11/26 03:51:03;;;;;;;4.05;2.25;;;19.40;99.90;;;;;;4229438;28;20259;-77
2021/11/26 03:53:05;;;;;;;5.63;2.33;;;19.40;99.90;;;;;;4227720;28;20206;-77
2021/11/26 03:55:20;;;;;;;4.82;2.30;;;19.40;99.90;;;;;;4227842;28;20275;-77
2021/11/26 03:57:22;;;;;;;4.38;2.58;;;19.40;99.90;;;;;;4229222;28;20715;-77
2021/11/26 03:59:26;;;;;;;4.55;2.25;;;19.40;99.90;;;;;;4229268;28;20209;-77
2021/11/26 04:01:28;;;;;;;3.88;2.10;;;19.40;99.90;;;;;;4229153;28;20267;-77
2021/11/26 04:03:30;;;;;;;3.58;2.00;;;19.30;99.90;;;;;;4229030;28;20694;-77
2021/11/26 04:05:32;;;;;;;3.97;2.08;;;19.30;99.90;;;;;;4226964;27;20201;-77
2021/11/26 04:07:35;;;;;;;3.85;2.42;;;19.30;99.90;;;;;;4228817;28;20217;-77
2021/11/26 04:09:37;;;;;;;3.47;2.22;;;19.30;99.90;;;;;;4229298;28;20271;-77
2021/11/26 04:11:39;;;;;;;5.78;2.38;;;19.30;99.90;;;;;;4229182;28;20213;-77
2021/11/26 04:13:42;;;;;;;3.75;2.38;;;19.30;99.90;;;;;;4228952;28;20263;-77
2021/11/26 04:15:46;;;;;;;3.13;2.22;;;19.30;99.90;;;;;;4229684;28;20295;-77
2021/11/26 04:17:50;;;;;;;3.47;2.17;;;19.30;99.90;;;;;;4221614;28;20279;-77
2021/11/26 04:19:53;;;;;;;4.30;2.30;;;19.30;99.90;;;;;;4229033;28;20205;-77
2021/11/26 04:21:55;;;;;;;2.55;1.85;;;19.30;99.90;;;;;;4218849;28;20264;-77
2021/11/26 04:23:57;;;;;;;2.83;1.92;;;19.30;99.90;;;;;;4228917;28;20263;-77
2021/11/26 04:25:59;;;;;;;3.75;2.28;;;19.30;99.90;;;;;;4221197;28;20210;-77
2021/11/26 04:28:02;;;;;;;3.92;2.17;;;19.30;99.90;;;;;;4228751;28;20267;-77
2021/11/26 04:30:05;;;;;;;4.97;2.40;;;19.30;99.90;;;;;;4228842;28;20218;-77
2021/11/26 04:32:09;;;;;;;3.75;2.08;;;19.30;99.90;;;;;;4221134;28;20214;-77
2021/11/26 04:34:12;;;;;;;5.80;2.30;;;19.30;99.90;;;;;;4228930;28;20752;-77
2021/11/26 04:36:15;;;;;;;5.10;2.15;;;19.30;99.90;;;;;;4228383;28;21117;-77
2021/11/26 04:38:19;;;;;;;4.55;2.25;;;19.30;99.90;;;;;;4224917;28;20283;-77
2021/11/26 04:40:21;;;;;;;3.45;2.13;;;19.20;99.90;;;;;;4228758;28;20263;-77
2021/11/26 04:42:23;;;;;;;3.83;2.25;;;19.20;99.90;;;;;;4243615;27;20250;-77
2021/11/26 04:44:26;;;;;;;4.13;2.10;;;19.20;99.90;;;;;;4245282;27;20217;-78
2021/11/26 04:46:28;;;;;;;4.85;2.13;;;19.20;99.90;;;;;;4245267;27;20610;-77
2021/11/26 04:48:32;;;;;;;3.58;2.00;;;19.20;99.90;;;;;;4245193;27;20233;-77
2021/11/26 04:50:34;;;;;;;3.90;2.38;;;19.20;99.90;;;;;;4245507;28;20265;-77
2021/11/26 04:52:37;;;;;;;4.32;2.22;;;19.20;99.90;;;;;;4244439;28;20649;-77
2021/11/26 04:54:39;;;;;;;5.43;2.53;;;19.20;99.90;;;;;;4244830;28;20610;-77
2021/11/26 04:56:41;;;;;;;4.35;2.30;;;19.20;99.90;;;;;;4245238;28;20232;-77
2021/11/26 04:58:43;;;;;;;5.88;2.30;;;19.20;99.90;;;;;;4245615;28;20213;-77
2021/11/26 05:00:46;;;;;;;4.05;2.17;;;19.20;99.90;;;;;;4245286;28;20658;-77
2021/11/26 05:02:48;;;;;;;4.05;2.22;;;19.20;99.90;;;;;;4240773;28;20217;-77
2021/11/26 05:04:52;;;;;;;3.40;2.03;;;19.20;99.90;;;;;;4243951;28;20208;-77
2021/11/26 05:06:54;;;;;;;3.17;1.90;;;19.20;99.90;;;;;;4245258;28;20212;-77
2021/11/26 05:08:56;;;;;;;4.15;2.20;;;19.10;99.90;;;;;;4245132;28;20236;-77
2021/11/26 05:10:59;;;;;;;4.38;2.40;;;19.10;99.90;;;;;;4245408;28;20261;-77
2021/11/26 05:13:02;;;;;;;4.00;2.60;;;19.10;99.90;;;;;;4243105;28;20564;-77
2021/11/26 05:15:07;;;;;;;5.03;2.10;;;19.10;99.90;;;;;;4245385;28;20949;-77
2021/11/26 05:17:09;;;;;;;4.28;2.17;;;19.10;99.90;;;;;;4245139;28;20205;-77
2021/11/26 05:19:11;;;;;;;4.32;2.00;;;19.10;99.90;;;;;;4245009;28;20266;-77
2021/11/26 05:21:15;;;;;;;4.13;2.30;;;19.10;99.90;;;;;;4245094;28;20257;-77
2021/11/26 05:23:17;;;;;;;5.18;2.10;;;19.10;99.90;;;;;;4240339;28;20636;-77
2021/11/26 05:25:21;;;;;;;3.65;2.00;;;19.10;99.90;;;;;;4243738;28;20214;-77
2021/11/26 05:27:23;;;;;;;4.40;1.98;;;19.10;99.90;;;;;;4245079;28;20221;-77
2021/11/26 05:29:25;;;;;;;4.50;1.98;;;19.10;99.90;;;;;;4242348;28;20281;-77
2021/11/26 05:31:28;;;;;;;4.03;2.20;;;19.10;99.90;;;;;;4245076;28;20230;-77
2021/11/26 05:33:30;;;;;;;5.15;2.47;;;19.10;99.90;;;;;;4242684;28;20258;-77
2021/11/26 05:35:33;;;;;;;5.05;2.22;;;19.00;99.90;;;;;;4243769;28;20654;-77
2021/11/26 05:37:36;;;;;;;3.28;2.15;;;19.00;99.90;;;;;;4244525;28;20208;-77
2021/11/26 05:39:39;;;;;;;4.57;2.63;;;19.00;99.90;;;;;;4244910;28;20268;-77
2021/11/26 05:41:41;;;;;;;4.47;2.20;;;19.10;99.90;;;;;;4245207;28;21071;-77
2021/11/26 05:43:43;;;;;;;4.50;2.00;;;19.00;99.90;;;;;;4244115;28;20217;-77
2021/11/26 05:45:46;;;;;;;5.20;2.30;;;19.00;99.90;;;;;;4243395;28;20623;-77
2021/11/26 05:47:49;;;;;;;4.15;2.08;;;19.00;99.90;;;;;;4242806;28;20238;-77
2021/11/26 05:49:51;;;;;;;5.47;2.40;;;19.00;99.90;;;;;;4244282;28;20701;-77
2021/11/26 05:51:54;;;;;;;6.32;2.05;;;19.00;99.90;;;;;;4244827;28;20213;-77
2021/11/26 05:53:57;;;;;;;4.07;2.35;;;18.90;99.90;;;;;;4244975;28;20929;-78
2021/11/26 05:56:00;;;;;;;4.15;1.95;;;18.80;99.90;;;;;;4245007;27;20240;-77
2021/11/26 05:58:04;;;;;;;5.30;2.05;;;18.80;99.90;;;;;;4247669;27;20213;-78
2021/11/26 06:00:09;;;;;;;4.28;2.17;;;18.80;99.90;;;;;;4247932;27;20259;-77
2021/11/26 06:02:11;;;;;;;7.03;2.47;;;18.90;99.90;;;;;;4248217;27;20189;-77
2021/11/26 06:04:13;;;;;;;7.55;2.65;;;18.90;99.90;;;;;;4246377;27;20213;-77
2021/11/26 06:06:16;;;;;;;5.28;2.38;;;19.00;99.90;;;;;;4247788;27;20213;-77
2021/11/26 06:08:18;;;;;;;4.80;2.60;;;19.00;99.90;;;;;;4248072;27;20266;-77
2021/11/26 06:10:23;;;;;;;3.50;2.17;;;19.10;99.90;;;;;;4247880;27;20665;-77
2021/11/26 06:12:25;;;;;;;4.60;2.30;;;19.10;99.90;;;;;;4247707;27;20266;-77
2021/11/26 06:14:28;;;;;;;4.20;2.03;;;19.10;99.90;;;;;;4247858;27;20261;-77
2021/11/26 06:16:30;;;;;;;4.82;2.33;;;19.10;99.90;;;;;;4246458;27;20229;-77
2021/11/26 06:18:33;;;;;;;4.53;2.38;;;19.20;99.90;;;;;;4247833;27;20217;-77
2021/11/26 06:20:35;;;;;;;3.15;2.17;;;19.20;99.90;;;;;;4246163;27;20266;-77
2021/11/26 06:22:37;;;;;;;6.18;2.38;;;19.20;99.90;;;;;;4247639;27;20208;-77
2021/11/26 06:24:40;;;;;;;4.70;2.00;;;19.20;99.90;;;;;;4247864;27;20201;-78
2021/11/26 06:26:44;;;;;;;6.03;2.65;;;19.20;99.90;;;;;;4247900;27;20212;-77
2021/11/26 06:28:46;;;;;;;4.85;2.00;;;19.20;99.90;;;;;;4247601;27;20661;-77
2021/11/26 06:30:48;;;;;;;4.18;2.10;;;19.20;99.90;;;;;;4247624;27;20266;-78
2021/11/26 06:32:52;;;;;;;6.57;2.20;;;19.20;99.90;;;;;;4247506;27;20213;-77
2021/11/26 06:34:54;;;;;;;6.90;2.55;;;19.20;99.90;;;;;;4247882;27;20213;-77
2021/11/26 06:36:57;;;;;;;5.72;2.35;;;19.30;99.90;;;;;;4245997;27;20246;-77
2021/11/26 06:38:59;;;;;;;5.00;2.42;;;19.30;99.90;;;;;;4247751;27;20669;-78
2021/11/26 06:41:02;;;;;;;3.78;1.90;;;19.30;99.90;;;;;;4245293;27;20618;-78
2021/11/26 06:43:06;;;;;;;5.50;2.60;;;19.30;99.90;;;;;;4246515;27;20209;-78
2021/11/26 06:45:09;;;;;;;5.50;2.30;;;19.30;99.90;;;;;;4246252;27;20262;-78
2021/11/26 06:47:12;;;;;;;3.30;2.03;;;19.30;99.90;;;;;;4247333;27;20209;-78
2021/11/26 06:49:14;;;;;;;6.80;2.60;;;19.30;99.90;;;;;;4247326;27;20967;-77
2021/11/26 06:51:16;;;;;;;4.88;2.00;;;19.40;99.90;;;;;;4247048;27;20220;-77
2021/11/26 06:53:19;;;;;;;4.45;2.22;;;19.30;99.90;;;;;;4243161;27;20221;-77
2021/11/26 06:55:22;;;;;;;6.15;2.65;;;19.30;99.90;;;;;;4244882;27;20270;-77
2021/11/26 06:57:24;;;;;;;7.72;2.90;;;19.30;99.90;;;;;;4246932;27;20278;-78
2021/11/26 06:59:28;;;;;;;5.15;2.28;;;19.30;99.90;;;;;;4247024;27;20609;-77
2021/11/26 07:01:30;;;;;;;4.25;2.17;;;19.40;99.90;;;;;;4246995;27;20229;-78
2021/11/26 07:03:33;;;;;;;4.82;2.45;;;19.30;99.90;;;;;;4247052;27;20213;-77
2021/11/26 07:05:35;;;;;;;6.47;2.55;;;19.40;99.90;;;;;;4247278;27;20217;-77
2021/11/26 07:07:38;;;;;;;5.93;2.10;;;19.40;99.90;;;;;;4247190;27;20258;-77
2021/11/26 07:09:40;;;;;;;4.68;2.45;;;19.40;99.90;;;;;;4247195;27;20620;-78
2021/11/26 07:11:43;;;;;;;5.32;2.33;;;19.40;99.90;;;;;;4245679;27;20224;-77
2021/11/26 07:13:45;;;;;;;4.88;2.20;;;19.40;99.90;;;;;;4247116;27;20217;-77
2021/11/26 07:15:49;;;;;;;5.57;2.75;;;19.40;99.90;;;;;;4246390;27;20702;-77
2021/11/26 07:17:51;;;;;;;7.10;2.40;;;19.40;99.90;;;;;;4246760;27;20273;-78
2021/11/26 07:19:54;;;;;;;6.85;2.42;;;19.40;99.90;;;;;;4244906;27;20217;-77
2021/11/26 07:21:56;;;;;;;6.32;2.70;;;19.40;99.90;;;;;;4245820;27;20213;-78
2021/11/26 07:23:59;;;;;;;6.97;2.75;;;19.40;99.90;;;;;;4245687;27;20653;-77
2021/11/26 07:26:01;;;;;;;6.72;2.72;;;19.40;99.90;;;;;;4246723;27;20220;-78
2021/11/26 07:28:04;;;;;;;6.93;2.88;;;19.40;99.90;;;;;;4245575;27;20645;-78
2021/11/26 07:30:08;;;;;;;7.45;2.60;;;19.40;99.90;;;;;;4246671;27;20206;-77
2021/11/26 07:32:15;;;;;;;6.70;2.33;;;19.40;99.90;;;;;;4246253;27;20621;-77
2021/11/26 07:34:17;;;;;;;5.53;2.55;;;19.50;99.90;;;;;;4246437;27;20205;-78
2021/11/26 07:36:20;;;;;;;7.70;2.45;;;19.40;99.90;;;;;;4246301;27;20233;-77
2021/11/26 07:38:22;;;;;;;5.93;2.60;;;19.50;99.90;;;;;;4246372;27;20621;-77
2021/11/26 07:40:24;;;;;;;6.85;3.03;;;19.50;99.90;;;;;;4243816;27;20225;-78
2021/11/26 07:42:26;;;;;;;4.72;2.22;;;19.50;99.90;;;;;;4246607;27;20274;-77
2021/11/26 07:44:29;;;;;;;4.07;2.15;;;19.50;99.90;;;;;;4246472;27;20217;-77
2021/11/26 07:46:31;;;;;;;6.95;2.90;;;19.50;99.90;;;;;;4245097;27;21003;-78
2021/11/26 07:48:35;;;;;;;7.10;2.63;;;19.50;99.90;;;;;;4245850;27;20297;-77
2021/11/26 07:50:37;;;;;;;4.65;2.70;;;19.50;99.90;;;;;;4245981;27;20229;-78
2021/11/26 07:52:41;;;;;;;5.93;2.88;;;19.50;99.90;;;;;;4244075;27;20212;-77
2021/11/26 07:54:43;;;;;;;5.70;2.70;;;19.40;99.90;;;;;;4238535;27;20229;-77
2021/11/26 07:56:45;;;;;;;12.05;3.22;;;19.40;99.90;;;;;;4237949;27;20232;-77
2021/11/26 07:58:48;;;;;;;7.63;2.80;;;19.50;99.90;;;;;;4243967;27;20330;-78
2021/11/26 08:00:50;;;;;;;8.00;2.70;;;19.50;99.90;;;;;;4242460;27;20217;-77
2021/11/26 08:02:53;;;;;;;5.47;2.38;;;19.60;99.90;;;;;;4240618;27;20730;-77
2021/11/26 08:04:56;;;;;;;5.28;2.58;;;19.60;99.90;;;;;;4241162;27;20615;-77
2021/11/26 08:06:59;;;;;;;6.70;2.60;;;19.60;99.90;;;;;;4243002;27;20281;-77
2021/11/26 08:09:02;;;;;;;7.70;2.60;;;19.70;99.90;;;;;;4240459;27;20220;-75
2021/11/26 08:11:04;;;;;;;8.35;2.60;;;19.60;99.90;;;;;;4243610;27;20205;-76
2021/11/26 08:13:07;;;;;;;6.93;2.75;;;19.70;99.90;;;;;;4242684;27;20217;-79
2021/11/26 08:15:12;;;;;;;5.03;2.55;;;19.70;99.90;;;;;;4242199;27;20213;-77
2021/11/26 08:17:15;;;;;;;7.97;2.13;;;19.70;99.90;;;;;;4244511;27;20280;-77
2021/11/26 08:19:18;;;;;;;9.65;2.80;;;19.70;99.90;;;;;;4240211;27;20263;-77
2021/11/26 08:21:21;;;;;;;6.05;2.38;;;19.80;99.90;;;;;;4244401;27;20247;-77
2021/11/26 08:23:24;;;;;;;7.07;2.78;;;19.80;99.90;;;;;;4245543;27;20221;-77
2021/11/26 08:25:28;;;;;;;7.95;2.83;;;19.80;99.90;;;;;;4245087;27;20217;-76
2021/11/26 08:27:30;;;;;;;6.93;2.63;;;19.80;99.90;;;;;;4243453;27;20258;-77
2021/11/26 08:29:32;;;;;;;4.80;2.75;;;19.80;99.90;;;;;;4243951;27;20213;-77
2021/11/26 08:31:35;;;;;;;4.78;2.10;;;19.80;99.90;;;;;;4242282;27;20221;-77
2021/11/26 08:33:37;;;;;;;5.88;2.72;;;19.90;99.90;;;;;;4241740;27;20672;-77
2021/11/26 08:35:40;;;;;;;7.35;3.15;;;19.90;99.90;;;;;;4240295;27;20217;-75
2021/11/26 08:37:43;;;;;;;9.32;2.65;;;19.90;99.90;;;;;;4236497;27;20282;-76
2021/11/26 08:39:48;;;;;;;5.88;2.63;;;19.80;99.90;;;;;;4241220;27;20278;-75
2021/11/26 08:41:50;;;;;;;4.82;2.45;;;19.80;99.90;;;;;;4240399;27;20205;-76
2021/11/26 08:43:53;;;;;;;5.25;2.58;;;19.90;99.90;;;;;;4242182;27;20221;-76
2021/11/26 08:45:55;;;;;;;9.38;2.90;;;19.90;99.90;;;;;;4228555;27;20273;-77
2021/11/26 08:47:59;;;;;;;5.53;2.55;;;19.90;99.90;;;;;;4240205;28;20603;-77
2021/11/26 08:50:02;;;;;;;7.47;2.70;;;19.90;99.90;;;;;;4239092;27;21342;-75
2021/11/26 08:52:05;;;;;;;7.68;2.47;;;19.90;99.90;;;;;;4238685;27;20778;-76
2021/11/26 08:54:08;;;;;;;6.85;2.42;;;19.90;99.90;;;;;;4230805;27;20304;-76
2021/11/26 08:56:11;;;;;;;7.93;2.20;;;19.80;99.90;;;;;;4235599;27;20221;-77
2021/11/26 08:58:14;;;;;;;6.63;3.00;;;19.90;99.90;;;;;;4230872;27;20688;-77
2021/11/26 09:00:18;;;;;;;4.45;2.65;;;20.00;99.90;;;;;;4237976;28;20777;-78
2021/11/26 09:02:21;;;;;;;7.35;2.80;;;20.00;99.90;;;;;;4234799;27;20258;-76
2021/11/26 09:04:25;;;;;;;5.68;2.58;;;19.90;99.90;;;;;;4240200;28;20217;-75
2021/11/26 09:06:28;;;;;;;5.80;2.42;;;20.00;99.90;;;;;;4242026;28;20217;-77
2021/11/26 09:08:30;;;;;;;6.47;2.58;;;20.10;99.90;;;;;;4240006;27;20209;-77
2021/11/26 09:10:36;;;;;;;7.65;2.90;;;20.00;99.90;;;;;;4240840;28;20269;-74
2021/11/26 09:12:38;;;;;;;12.95;2.95;;;20.10;99.90;;;;;;4239062;27;20217;-76
2021/11/26 09:14:41;;;;;;;7.63;2.85;;;20.10;99.90;;;;;;4242770;28;21012;-75
2021/11/26 09:16:44;;;;;;;7.72;2.60;;;20.20;99.90;;;;;;4238854;27;20305;-75
2021/11/26 09:18:47;;;;;;;4.93;2.50;;;20.20;99.90;;;;;;4240023;27;20293;-75
2021/11/26 09:20:52;;;;;;;6.80;2.47;;;20.20;99.90;;;;;;4242178;27;20213;-74
2021/11/26 09:22:55;;;;;;;4.80;2.58;;;20.20;99.90;;;;;;4240637;27;20221;-74
2021/11/26 09:24:58;;;;;;;9.90;3.00;;;20.30;99.90;;;;;;4239567;28;20298;-73
2021/11/26 09:27:01;;;;;;;6.07;2.88;;;20.30;99.90;;;;;;4160268;27;20224;-77
2021/11/26 09:29:04;;;;;;;8.77;2.80;;;20.40;99.90;;;;;;4166531;28;20257;-74
2021/11/26 09:31:06;;;;;;;7.40;2.90;;;20.40;99.90;;;;;;4190545;28;20215;-74
2021/11/26 09:33:11;;;;;;;7.80;2.72;;;20.30;99.90;;;;;;4194548;28;20728;-74
2021/11/26 09:35:14;;;;;;;5.50;2.60;;;20.30;99.90;;;;;;4194528;28;20234;-76
2021/11/26 09:37:17;;;;;;;3.78;2.63;;;20.10;99.90;;;;;;4193419;28;20211;-76
2021/11/26 09:39:20;;;;;;;4.38;2.30;;;20.20;99.90;;;;;;4194691;28;20224;-76
2021/11/26 09:41:23;;;;;;;5.43;2.47;;;20.30;99.90;;;;;;4193418;28;20265;-75
2021/11/26 09:43:27;;;;;;;5.85;2.67;;;20.30;99.90;;;;;;4192960;28;20215;-75
2021/11/26 09:45:32;;;;;;;6.88;3.08;;;20.30;99.90;;;;;;4193655;28;20223;-75
2021/11/26 09:47:34;;;;;;;5.53;2.58;;;20.30;99.90;;;;;;4193620;28;20647;-75
2021/11/26 09:49:36;;;;;;;7.57;3.25;;;20.30;99.90;;;;;;4194434;28;20904;-75
2021/11/26 09:51:39;;;;;;;9.75;2.95;;;20.30;99.90;;;;;;4193167;28;20276;-75
2021/11/26 09:53:42;;;;;;;5.78;2.42;;;20.40;99.90;;;;;;4193880;28;20219;-77
2021/11/26 09:55:46;;;;;;;5.95;2.90;;;20.50;99.90;;;;;;4194866;28;20276;-77
2021/11/26 09:57:49;;;;;;;7.00;3.03;;;20.60;99.90;;;;;;4192062;28;20235;-77
2021/11/26 09:59:52;;;;;;;8.45;3.45;;;20.70;99.90;;;;;;4193950;28;20265;-76
2021/11/26 10:01:55;;;;;;;4.95;2.67;;;20.80;99.90;;;;;;4192558;28;20236;-76
2021/11/26 10:03:57;;;;;;;8.00;3.33;;;20.70;99.90;;;;;;4192955;28;20223;-76
2021/11/26 10:06:00;;;;;;;6.80;3.08;;;20.80;99.90;;;;;;4194921;28;20207;-76
2021/11/26 10:08:03;;;;;;;6.55;2.47;;;20.80;99.90;;;;;;4188922;28;20203;-77
2021/11/26 10:10:08;;;;;;;6.25;3.00;;;20.90;99.90;;;;;;4192602;28;20219;-77
2021/11/26 10:12:14;;;;;;;7.25;2.95;;;20.90;99.90;;;;;;4192656;28;20249;-74
2021/11/26 10:14:20;;;;;;;5.47;2.72;;;21.00;99.90;;;;;;4194315;28;20219;-75
2021/11/26 10:16:24;;;;;;;9.30;3.03;;;21.00;99.90;;;;;;4195581;28;20276;-75
2021/11/26 10:18:28;;;;;;;5.95;2.80;;;21.10;99.90;;;;;;4194240;28;20273;-75
2021/11/26 10:20:30;;;;;;;5.40;2.78;;;21.20;99.90;;;;;;4195630;28;20589;-77
2021/11/26 10:22:36;;;;;;;6.95;2.78;;;21.20;99.90;;;;;;4192744;28;20675;-75
2021/11/26 10:24:38;;;;;;;5.75;2.80;;;21.20;99.90;;;;;;4191541;28;20215;-75
2021/11/26 10:26:40;;;;;;;9.05;4.07;;;21.20;99.90;;;;;;4191915;28;20261;-74
2021/11/26 10:28:49;;;;;;;8.13;3.95;;;21.10;99.90;;;;;;4190040;28;20223;-74
2021/11/26 10:30:52;;;;;;;7.60;3.45;;;20.90;99.90;;;;;;4194468;28;20215;-71
2021/11/26 10:32:59;;;;;;;7.43;3.60;;;21.00;99.90;;;;;;4194398;28;20207;-71
2021/11/26 10:35:01;;;;;;;5.53;3.38;;;21.10;99.90;;;;;;4193227;28;20264;-71
2021/11/26 10:37:04;;;;;;;6.18;3.35;;;21.20;99.90;;;;;;4194653;28;20215;-71
2021/11/26 10:39:11;;;;;;;9.20;3.92;;;21.20;99.90;;;;;;4193381;28;20741;-71